Time;durP1;ratioP1;P1;durP2;ratioP2;P2;SDS_P1;SDS_P2;PMS_P1;PMS_P2;Temp;Humidity;BMP_temperature;BMP_pressure;BME280_temperature;BME280_humidity;BME280_pressure;Samples;Min_cycle;Max_cycle;Signal;HPM_P1;HPM_P2
2023/11/08 00:00:07;;;;;;;7.90;7.20;;;8.20;99.90;;;;;;5077936;28;20467;-83
2023/11/08 00:02:37;;;;;;;7.60;7.20;;;8.20;99.90;;;;;;5079609;28;20483;-83
2023/11/08 00:05:06;;;;;;;7.23;6.97;;;8.20;99.90;;;;;;5074240;28;20495;-83
2023/11/08 00:07:34;;;;;;;7.33;7.03;;;8.30;99.90;;;;;;5073618;28;20542;-83
2023/11/08 00:10:08;;;;;;;7.13;6.80;;;8.30;99.90;;;;;;5080343;28;20538;-82
2023/11/08 00:12:36;;;;;;;7.03;6.83;;;8.20;1.00;;;;;;5080172;28;20483;-82
2023/11/08 00:15:07;;;;;;;7.50;7.20;;;8.30;99.90;;;;;;5082847;28;20462;-83
2023/11/08 00:17:38;;;;;;;6.97;6.67;;;8.30;99.90;;;;;;5086838;28;20479;-82
2023/11/08 00:20:09;;;;;;;6.90;6.70;;;8.30;99.90;;;;;;5079418;28;20461;-83
2023/11/08 00:22:38;;;;;;;6.80;6.60;;;8.30;99.90;;;;;;5082701;28;20483;-82
2023/11/08 00:25:07;;;;;;;7.40;7.10;;;8.30;99.90;;;;;;5082227;28;20454;-84
2023/11/08 00:27:35;;;;;;;6.83;6.63;;;8.30;99.90;;;;;;5083185;28;20494;-83
2023/11/08 00:30:05;;;;;;;6.80;6.60;;;8.30;99.90;;;;;;5082639;28;20459;-82
2023/11/08 00:32:33;;;;;;;6.90;6.70;;;8.40;99.90;;;;;;5082628;28;20497;-85
2023/11/08 00:35:03;;;;;;;6.77;6.53;;;8.50;99.90;;;;;;5079150;28;20517;-83
2023/11/08 00:37:31;;;;;;;7.63;7.10;;;8.40;99.90;;;;;;5079086;28;20474;-84
2023/11/08 00:40:00;;;;;;;6.70;6.40;;;8.50;99.90;;;;;;5076559;28;20462;-83
2023/11/08 00:42:29;;;;;;;7.03;6.80;;;8.60;99.90;;;;;;5078106;28;20612;-84
2023/11/08 00:44:57;;;;;;;7.13;6.93;;;8.50;99.90;;;;;;5076412;28;20465;-84
2023/11/08 00:47:25;;;;;;;7.57;7.30;;;8.50;99.90;;;;;;5080552;28;20509;-82
2023/11/08 00:49:54;;;;;;;7.60;7.00;;;8.40;99.90;;;;;;5083208;28;20463;-82
2023/11/08 00:52:23;;;;;;;7.20;6.90;;;8.50;1.00;;;;;;5076367;28;20470;-82
2023/11/08 00:54:56;;;;;;;7.87;7.57;;;8.40;1.00;;;;;;5086007;28;20457;-83
2023/11/08 00:57:24;;;;;;;7.53;7.20;;;8.40;1.00;;;;;;5080972;28;20459;-84
2023/11/08 00:59:52;;;;;;;8.00;7.60;;;8.30;1.00;;;;;;5084700;28;20540;-82
2023/11/08 01:02:21;;;;;;;7.77;7.47;;;8.20;1.00;;;;;;5083195;28;21003;-84
2023/11/08 01:04:49;;;;;;;7.73;7.50;;;8.30;1.00;;;;;;5084159;28;20466;-82
2023/11/08 01:07:18;;;;;;;8.40;8.07;;;8.30;1.00;;;;;;5084542;28;20443;-82
2023/11/08 01:09:47;;;;;;;7.63;7.33;;;8.40;1.00;;;;;;5080320;28;20458;-82
2023/11/08 01:12:15;;;;;;;8.53;8.13;;;8.30;1.00;;;;;;5082900;28;20474;-84
2023/11/08 01:14:44;;;;;;;8.10;7.50;;;8.30;1.00;;;;;;5079768;28;20960;-84
2023/11/08 01:17:14;;;;;;;8.30;7.80;;;8.20;1.00;;;;;;5079139;28;20467;-84
2023/11/08 01:19:43;;;;;;;7.97;7.60;;;8.20;1.00;;;;;;5084183;28;20466;-82
2023/11/08 01:22:11;;;;;;;8.20;7.90;;;8.20;1.00;;;;;;5080908;28;20469;-84
2023/11/08 01:24:41;;;;;;;8.43;8.13;;;8.10;1.00;;;;;;5078410;28;20508;-80
2023/11/08 01:27:14;;;;;;;8.10;7.73;;;8.10;1.00;;;;;;5083904;28;20443;-84
2023/11/08 01:29:43;;;;;;;8.33;7.80;;;8.10;1.00;;;;;;5078160;28;21011;-82
2023/11/08 01:32:11;;;;;;;8.00;7.60;;;8.10;1.00;;;;;;5078611;28;20462;-82
2023/11/08 01:34:40;;;;;;;8.40;8.00;;;8.00;1.00;;;;;;5081664;28;20462;-82
2023/11/08 01:37:08;;;;;;;8.67;8.10;;;8.00;1.00;;;;;;5081240;28;20462;-83
2023/11/08 01:39:36;;;;;;;8.40;7.90;;;8.00;5.90;;;;;;5081754;28;20459;-83
2023/11/08 01:42:05;;;;;;;7.83;7.63;;;8.00;1.00;;;;;;5084361;28;20501;-85
2023/11/08 01:44:35;;;;;;;7.90;7.60;;;8.00;1.00;;;;;;5082334;28;20971;-85
2023/11/08 01:47:04;;;;;;;8.13;7.83;;;8.00;1.00;;;;;;5083866;28;20482;-83
2023/11/08 01:49:32;;;;;;;8.00;7.60;;;7.90;1.00;;;;;;5081088;28;20461;-84
2023/11/08 01:52:01;;;;;;;7.70;7.40;;;7.90;6.60;;;;;;5082917;28;20478;-84
2023/11/08 01:54:30;;;;;;;7.93;7.53;;;7.90;22.10;;;;;;5079544;28;20450;-83
2023/11/08 01:56:59;;;;;;;7.53;7.33;;;7.80;28.60;;;;;;5085037;28;20462;-83
2023/11/08 01:59:27;;;;;;;8.03;7.60;;;7.90;14.00;;;;;;5078060;28;20872;-85
2023/11/08 02:01:58;;;;;;;8.10;7.70;;;7.90;11.60;;;;;;5080757;28;20960;-83
2023/11/08 02:04:28;;;;;;;7.67;7.57;;;7.80;64.20;;;;;;5087256;28;20458;-81
2023/11/08 02:06:57;;;;;;;8.20;7.93;;;7.80;99.90;;;;;;5080024;28;20461;-82
2023/11/08 02:09:26;;;;;;;8.07;7.77;;;7.80;99.90;;;;;;5080337;28;20494;-84
2023/11/08 02:11:57;;;;;;;8.30;8.10;;;7.80;99.90;;;;;;5078872;28;20489;-83
2023/11/08 02:14:26;;;;;;;8.03;7.83;;;7.80;99.90;;;;;;5082333;28;20471;-85
2023/11/08 02:16:54;;;;;;;8.73;8.40;;;7.80;99.90;;;;;;5074882;28;20455;-84
2023/11/08 02:19:24;;;;;;;8.00;7.80;;;7.80;99.90;;;;;;5078586;28;20463;-84
2023/11/08 02:21:52;;;;;;;8.40;8.00;;;7.80;99.90;;;;;;5080292;28;20839;-84
2023/11/08 02:24:23;;;;;;;9.07;8.57;;;7.80;99.90;;;;;;5077214;28;20446;-82
2023/11/08 02:26:52;;;;;;;8.77;8.47;;;7.80;99.90;;;;;;5081454;28;20465;-84
2023/11/08 02:29:20;;;;;;;8.30;8.10;;;7.90;99.90;;;;;;5077183;28;20447;-84
2023/11/08 02:31:50;;;;;;;8.60;8.27;;;7.90;99.90;;;;;;5080918;28;20486;-83
2023/11/08 02:34:19;;;;;;;8.97;8.67;;;7.90;99.90;;;;;;5074259;28;20443;-81
2023/11/08 02:36:48;;;;;;;8.30;8.10;;;7.90;99.90;;;;;;5077879;28;20953;-84
2023/11/08 02:39:18;;;;;;;8.77;8.57;;;7.90;99.90;;;;;;5078141;28;20475;-82
2023/11/08 02:41:50;;;;;;;9.40;9.10;;;8.00;99.90;;;;;;5077199;28;20477;-82
2023/11/08 02:44:18;;;;;;;8.87;8.50;;;8.00;99.90;;;;;;5083956;28;20490;-81
2023/11/08 02:46:47;;;;;;;8.97;8.73;;;8.00;99.90;;;;;;5075819;28;20459;-82
2023/11/08 02:49:15;;;;;;;8.40;8.20;;;7.90;99.90;;;;;;5080295;28;20454;-83
2023/11/08 02:51:44;;;;;;;8.80;8.50;;;8.00;99.90;;;;;;5077713;28;20561;-84
2023/11/08 02:54:12;;;;;;;8.27;8.07;;;8.00;99.90;;;;;;5082063;28;20494;-83
2023/11/08 02:56:41;;;;;;;8.83;8.53;;;7.90;99.90;;;;;;5076500;28;20447;-83
2023/11/08 02:59:11;;;;;;;8.30;7.90;;;7.80;99.90;;;;;;5077932;28;20557;-82
2023/11/08 03:01:39;;;;;;;9.33;8.93;;;7.90;1.00;;;;;;5078367;28;20535;-83
2023/11/08 03:04:08;;;;;;;8.77;8.30;;;7.90;99.90;;;;;;5076649;28;20500;-83
2023/11/08 03:06:38;;;;;;;9.40;9.10;;;7.90;99.90;;;;;;5075333;28;20450;-81
2023/11/08 03:09:06;;;;;;;8.90;8.50;;;7.90;99.90;;;;;;5084955;28;20447;-82
2023/11/08 03:11:38;;;;;;;8.20;8.00;;;7.90;99.90;;;;;;5079683;28;20486;-84
2023/11/08 03:14:07;;;;;;;8.93;8.53;;;7.80;99.90;;;;;;5077351;28;20461;-83
2023/11/08 03:16:37;;;;;;;8.93;8.63;;;7.80;99.90;;;;;;5074351;28;20475;-83
2023/11/08 03:19:06;;;;;;;8.10;7.90;;;7.90;99.90;;;;;;5080004;28;20840;-79
2023/11/08 03:21:34;;;;;;;9.07;8.77;;;7.80;99.90;;;;;;5076280;28;20580;-81
2023/11/08 03:24:02;;;;;;;9.23;8.73;;;7.90;99.90;;;;;;5077838;28;20923;-81
2023/11/08 03:26:33;;;;;;;8.73;8.43;;;7.90;99.90;;;;;;5075540;28;20461;-81
2023/11/08 03:29:01;;;;;;;8.50;8.20;;;7.80;99.90;;;;;;5077446;28;20527;-82
2023/11/08 03:31:30;;;;;;;8.30;8.10;;;7.80;99.90;;;;;;5080842;28;20485;-82
2023/11/08 03:34:00;;;;;;;8.47;8.17;;;7.90;99.90;;;;;;5080577;28;20455;-82
2023/11/08 03:36:29;;;;;;;8.80;8.50;;;7.80;99.90;;;;;;5082530;28;21039;-84
2023/11/08 03:38:59;;;;;;;8.00;7.80;;;7.90;99.90;;;;;;5076223;28;20501;-82
2023/11/08 03:41:28;;;;;;;8.73;8.20;;;7.90;99.90;;;;;;5076845;28;20760;-82
2023/11/08 03:43:56;;;;;;;8.47;8.07;;;7.90;99.90;;;;;;5074899;28;20463;-84
2023/11/08 03:46:24;;;;;;;8.07;7.87;;;8.00;99.90;;;;;;5081660;28;20844;-83
2023/11/08 03:48:57;;;;;;;8.60;8.40;;;7.90;99.90;;;;;;5082620;28;20475;-83
2023/11/08 03:51:28;;;;;;;9.87;8.97;;;7.90;99.90;;;;;;5082356;28;20498;-83
2023/11/08 03:53:58;;;;;;;8.57;8.30;;;8.00;99.90;;;;;;5077513;28;20470;-83
2023/11/08 03:56:27;;;;;;;9.40;8.60;;;8.00;99.90;;;;;;5080865;28;20457;-85
2023/11/08 03:58:55;;;;;;;9.07;8.37;;;8.00;99.90;;;;;;5078129;28;20477;-83
2023/11/08 04:01:25;;;;;;;8.50;8.30;;;8.00;99.90;;;;;;5074421;28;20473;-86
2023/11/08 04:03:54;;;;;;;9.40;9.10;;;8.00;99.90;;;;;;5080610;28;20537;-84
2023/11/08 04:06:22;;;;;;;9.20;8.80;;;8.00;99.90;;;;;;5087264;28;20438;-84
2023/11/08 04:08:56;;;;;;;9.40;9.00;;;8.00;99.90;;;;;;5085861;28;20533;-82
2023/11/08 04:11:25;;;;;;;9.47;9.23;;;8.00;99.90;;;;;;5084729;28;20466;-84
2023/11/08 04:13:53;;;;;;;8.90;8.70;;;8.00;99.90;;;;;;5085458;28;20502;-83
2023/11/08 04:16:21;;;;;;;9.07;8.57;;;7.90;99.90;;;;;;5079528;28;20937;-85
2023/11/08 04:18:51;;;;;;;9.17;8.67;;;7.90;99.90;;;;;;5081190;28;20463;-83
2023/11/08 04:21:20;;;;;;;9.30;9.10;;;7.90;99.90;;;;;;5086610;28;20467;-83
2023/11/08 04:23:48;;;;;;;9.63;9.07;;;7.80;99.90;;;;;;5081762;28;20882;-84
2023/11/08 04:26:18;;;;;;;9.40;9.10;;;7.90;99.90;;;;;;5078331;28;20969;-83
2023/11/08 04:28:46;;;;;;;9.23;8.90;;;7.90;99.90;;;;;;5077494;28;21059;-81
2023/11/08 04:31:15;;;;;;;9.10;8.60;;;7.90;99.90;;;;;;5087140;28;20496;-84
2023/11/08 04:33:44;;;;;;;9.57;9.27;;;7.90;99.90;;;;;;5083181;28;20474;-82
2023/11/08 04:36:14;;;;;;;9.37;9.07;;;7.90;99.90;;;;;;5087766;28;20438;-83
2023/11/08 04:38:44;;;;;;;10.27;9.50;;;7.90;99.90;;;;;;5082961;28;20461;-85
2023/11/08 04:41:14;;;;;;;9.33;8.83;;;7.90;99.90;;;;;;5084325;28;20510;-80
2023/11/08 04:43:45;;;;;;;9.27;8.97;;;7.90;1.00;;;;;;5080953;28;20446;-88
2023/11/08 04:46:14;;;;;;;9.60;9.03;;;7.90;1.00;;;;;;5082893;28;20464;-84
2023/11/08 04:48:43;;;;;;;9.40;9.03;;;7.90;1.00;;;;;;5079677;28;20463;-83
2023/11/08 04:51:11;;;;;;;9.07;8.67;;;8.00;1.00;;;;;;5082568;28;20447;-83
2023/11/08 04:53:40;;;;;;;8.97;8.57;;;8.00;1.00;;;;;;5082470;28;20439;-84
2023/11/08 04:56:08;;;;;;;10.15;9.55;;;8.00;99.90;;;;;;5078384;28;20524;-82
2023/11/08 04:58:36;;;;;;;9.20;8.73;;;8.00;1.00;;;;;;5082894;28;20288;-83
2023/11/08 05:01:06;;;;;;;9.00;8.70;;;8.00;99.90;;;;;;5077657;28;20457;-83
2023/11/08 05:03:35;;;;;;;9.10;8.90;;;8.00;99.90;;;;;;5078618;28;20557;-83
2023/11/08 05:06:03;;;;;;;9.17;8.77;;;8.00;99.90;;;;;;5072866;28;20458;-82
2023/11/08 05:08:32;;;;;;;9.40;9.20;;;8.00;99.90;;;;;;5075343;28;20455;-83
2023/11/08 05:11:04;;;;;;;8.90;8.60;;;8.00;99.90;;;;;;5075760;28;20459;-84
2023/11/08 05:13:32;;;;;;;9.93;9.57;;;7.90;99.90;;;;;;5078429;28;20466;-82
2023/11/08 05:16:01;;;;;;;9.87;9.60;;;7.90;99.90;;;;;;5080923;28;20501;-85
2023/11/08 05:18:30;;;;;;;10.17;9.77;;;7.90;99.90;;;;;;5071930;28;20486;-82
2023/11/08 05:20:58;;;;;;;9.50;9.10;;;7.90;99.90;;;;;;5073462;28;20486;-82
2023/11/08 05:23:27;;;;;;;9.33;8.93;;;7.90;99.90;;;;;;5073325;28;20446;-83
2023/11/08 05:25:57;;;;;;;10.20;9.70;;;7.90;99.90;;;;;;5077310;28;20903;-82
2023/11/08 05:28:25;;;;;;;9.50;9.10;;;7.90;99.90;;;;;;5078650;28;20447;-84
2023/11/08 05:30:53;;;;;;;9.30;9.00;;;7.90;99.90;;;;;;5079903;28;20446;-83
2023/11/08 05:33:22;;;;;;;10.13;9.67;;;7.80;99.90;;;;;;5077359;28;20443;-82
2023/11/08 05:35:51;;;;;;;9.23;8.83;;;7.80;99.90;;;;;;5074637;28;20479;-80
2023/11/08 05:38:20;;;;;;;15.37;9.30;;;7.70;99.90;;;;;;5074888;28;20447;-84
2023/11/08 05:40:51;;;;;;;9.77;9.30;;;7.70;99.90;;;;;;5080565;28;20462;-81
2023/11/08 05:43:21;;;;;;;9.90;9.50;;;7.60;99.90;;;;;;5075020;28;21110;-81
2023/11/08 05:45:49;;;;;;;9.97;9.37;;;7.60;99.90;;;;;;5076385;28;20458;-80
2023/11/08 05:48:17;;;;;;;9.47;9.27;;;7.60;99.90;;;;;;5075177;28;20493;-80
2023/11/08 05:50:46;;;;;;;9.60;9.20;;;7.60;99.90;;;;;;5077390;28;20577;-81
2023/11/08 05:53:17;;;;;;;8.63;8.43;;;7.60;99.90;;;;;;5078725;28;20490;-82
2023/11/08 05:55:45;;;;;;;9.70;9.40;;;7.60;99.90;;;;;;5079954;28;20457;-82
2023/11/08 05:58:14;;;;;;;9.97;9.57;;;7.60;99.90;;;;;;5078457;28;20459;-83
2023/11/08 06:00:43;;;;;;;9.13;8.80;;;7.60;99.90;;;;;;5074834;28;20566;-82
2023/11/08 06:03:12;;;;;;;9.63;9.13;;;7.60;99.90;;;;;;5076597;28;20517;-80
2023/11/08 06:05:40;;;;;;;9.17;8.77;;;7.60;99.90;;;;;;5075656;28;20463;-80
2023/11/08 06:08:08;;;;;;;8.73;8.30;;;7.60;99.90;;;;;;5073524;28;20454;-79
2023/11/08 06:10:38;;;;;;;9.30;8.90;;;7.60;99.90;;;;;;5075517;28;20465;-81
2023/11/08 06:13:07;;;;;;;10.03;9.63;;;7.60;99.90;;;;;;5071650;28;20492;-80
2023/11/08 06:15:41;;;;;;;9.30;8.90;;;7.60;99.90;;;;;;5074260;28;20459;-80
2023/11/08 06:18:10;;;;;;;10.00;9.60;;;7.60;99.90;;;;;;5071509;28;20444;-78
2023/11/08 06:20:38;;;;;;;9.63;9.30;;;7.50;99.90;;;;;;5075308;28;20231;-80
2023/11/08 06:23:07;;;;;;;9.03;8.73;;;7.70;99.90;;;;;;5077502;28;20477;-79
2023/11/08 06:25:36;;;;;;;9.23;8.80;;;7.70;99.90;;;;;;5074411;28;20493;-79
2023/11/08 06:28:05;;;;;;;10.07;9.67;;;7.70;99.90;;;;;;5072661;28;21664;-79
2023/11/08 06:30:34;;;;;;;9.07;8.63;;;7.70;99.90;;;;;;5073624;28;20488;-78
2023/11/08 06:33:03;;;;;;;9.00;8.70;;;7.60;99.90;;;;;;5076374;28;20544;-79
2023/11/08 06:35:32;;;;;;;9.57;9.17;;;7.70;99.90;;;;;;5074796;28;20440;-80
2023/11/08 06:38:00;;;;;;;9.00;8.80;;;7.70;99.90;;;;;;5077410;28;20933;-80
2023/11/08 06:40:28;;;;;;;9.20;8.90;;;7.70;99.90;;;;;;5077056;28;20478;-79
2023/11/08 06:42:57;;;;;;;11.70;11.00;;;7.70;99.90;;;;;;5076607;28;20475;-80
2023/11/08 06:45:26;;;;;;;9.50;9.20;;;7.70;99.90;;;;;;5074800;28;20565;-80
2023/11/08 06:47:54;;;;;;;9.23;9.03;;;7.80;99.90;;;;;;5073274;28;20455;-79
2023/11/08 06:50:23;;;;;;;9.53;9.13;;;7.70;99.90;;;;;;5072544;28;21180;-78
2023/11/08 06:52:51;;;;;;;10.13;9.73;;;7.80;99.90;;;;;;5075873;28;21003;-78
2023/11/08 06:55:19;;;;;;;9.50;9.20;;;7.70;99.90;;;;;;5077018;28;20986;-81
2023/11/08 06:58:02;;;;;;;8.87;8.57;;;7.70;99.90;;;;;;5076758;28;20461;-80
2023/11/08 07:00:33;;;;;;;9.03;8.70;;;7.80;99.90;;;;;;5076556;28;20497;-79
2023/11/08 07:03:03;;;;;;;9.10;8.80;;;7.80;99.90;;;;;;5073490;28;21019;-80
2023/11/08 07:05:32;;;;;;;9.60;9.10;;;7.70;99.90;;;;;;5075912;28;20963;-79
2023/11/08 07:08:06;;;;;;;9.40;9.00;;;7.70;99.90;;;;;;5076031;28;20570;-80
2023/11/08 07:10:34;;;;;;;9.93;9.30;;;7.70;99.90;;;;;;5073748;28;20454;-80
2023/11/08 07:13:03;;;;;;;9.30;8.80;;;7.80;99.90;;;;;;5076357;28;20471;-80
2023/11/08 07:15:32;;;;;;;9.00;8.63;;;7.80;99.90;;;;;;5074317;28;20465;-80
2023/11/08 07:18:01;;;;;;;9.17;8.77;;;7.90;99.90;;;;;;5073191;28;20532;-81
2023/11/08 07:20:29;;;;;;;9.40;8.90;;;8.00;99.90;;;;;;5076362;28;20479;-78
2023/11/08 07:22:58;;;;;;;9.30;9.10;;;8.20;99.90;;;;;;5076897;28;21018;-79
2023/11/08 07:25:26;;;;;;;9.30;9.00;;;8.40;99.90;;;;;;5071422;28;20459;-80
2023/11/08 07:27:54;;;;;;;9.07;8.77;;;8.50;98.70;;;;;;5074299;28;20478;-80
2023/11/08 07:30:22;;;;;;;9.27;8.97;;;8.70;1.00;;;;;;5071001;28;20447;-80
2023/11/08 07:32:52;;;;;;;11.00;10.80;;;8.80;1.00;;;;;;5073714;28;20471;-79
2023/11/08 07:35:20;;;;;;;9.87;9.30;;;9.00;1.00;;;;;;5075770;28;20447;-79
2023/11/08 07:37:49;;;;;;;9.40;9.20;;;9.10;1.00;;;;;;5076494;28;20447;-80
2023/11/08 07:40:18;;;;;;;10.20;10.00;;;9.20;1.00;;;;;;5075088;28;20478;-79
2023/11/08 07:42:48;;;;;;;10.50;10.10;;;9.30;1.00;;;;;;5071853;28;20475;-79
2023/11/08 07:45:16;;;;;;;10.17;9.87;;;9.40;1.00;;;;;;5075002;28;20451;-79
2023/11/08 07:47:45;;;;;;;9.83;9.43;;;9.50;1.00;;;;;;5071544;28;20456;-79
2023/11/08 07:50:16;;;;;;;9.53;9.33;;;9.70;1.00;;;;;;5079562;28;21266;-82
2023/11/08 07:52:45;;;;;;;9.70;9.40;;;9.70;1.00;;;;;;5075388;28;20517;-81
2023/11/08 07:55:13;;;;;;;9.93;9.53;;;9.70;1.00;;;;;;5076809;28;20518;-81
2023/11/08 07:57:41;;;;;;;9.60;9.40;;;9.80;1.00;;;;;;5075167;28;20461;-81
2023/11/08 08:00:14;;;;;;;9.70;9.40;;;9.70;99.90;;;;;;5076437;28;20447;-81
2023/11/08 08:02:43;;;;;;;10.07;9.60;;;9.70;99.90;;;;;;5079116;28;20474;-80
2023/11/08 08:05:12;;;;;;;10.23;9.93;;;9.60;99.90;;;;;;5073684;28;20505;-81
2023/11/08 08:07:42;;;;;;;10.27;9.97;;;9.70;1.00;;;;;;5076298;28;20459;-81
2023/11/08 08:10:12;;;;;;;10.43;10.10;;;10.00;1.00;;;;;;5071637;28;20446;-80
2023/11/08 08:12:42;;;;;;;10.67;10.30;;;10.30;99.90;;;;;;5079238;28;20467;-83
2023/11/08 08:15:17;;;;;;;10.97;10.67;;;10.50;99.90;;;;;;5076061;28;20861;-81
2023/11/08 08:17:46;;;;;;;10.40;10.00;;;10.60;99.90;;;;;;5079129;28;20440;-81
2023/11/08 08:20:15;;;;;;;10.30;10.10;;;10.80;99.90;;;;;;5078050;28;20461;-81
2023/11/08 08:22:44;;;;;;;10.67;10.37;;;10.90;99.90;;;;;;5078121;28;20543;-81
2023/11/08 08:25:14;;;;;;;10.93;10.60;;;10.80;99.90;;;;;;5079231;28;20458;-80
2023/11/08 08:27:43;;;;;;;9.90;9.70;;;11.00;99.90;;;;;;5079296;28;20461;-81
2023/11/08 08:30:14;;;;;;;10.07;9.70;;;11.00;99.90;;;;;;5078096;28;20582;-80
2023/11/08 08:32:44;;;;;;;9.77;9.57;;;11.10;99.90;;;;;;5077547;28;20474;-82
2023/11/08 08:35:13;;;;;;;10.00;9.70;;;11.20;99.90;;;;;;5073879;28;20573;-84
2023/11/08 08:37:46;;;;;;;11.00;10.57;;;11.20;99.90;;;;;;5075456;28;20454;-81
2023/11/08 08:40:14;;;;;;;10.17;9.80;;;11.20;99.90;;;;;;5075820;28;20585;-79
2023/11/08 08:42:45;;;;;;;9.80;9.60;;;11.10;99.90;;;;;;5078865;28;20486;-80
2023/11/08 08:45:16;;;;;;;9.80;9.50;;;11.10;99.90;;;;;;5080682;28;20458;-81
2023/11/08 08:47:45;;;;;;;10.37;9.87;;;11.40;99.90;;;;;;5077942;28;20505;-81
2023/11/08 08:50:16;;;;;;;10.10;9.80;;;11.50;99.90;;;;;;5078283;28;20508;-81
2023/11/08 08:52:51;;;;;;;10.40;10.00;;;11.60;99.90;;;;;;5074148;28;20521;-80
2023/11/08 08:55:19;;;;;;;9.90;9.70;;;11.80;99.90;;;;;;5075762;28;20469;-81
2023/11/08 08:57:49;;;;;;;10.60;10.20;;;11.80;99.90;;;;;;5075966;28;20534;-80
2023/11/08 09:00:23;;;;;;;10.30;10.00;;;11.60;99.90;;;;;;5076582;28;20972;-81
2023/11/08 09:02:52;;;;;;;9.90;9.70;;;11.40;99.90;;;;;;5076549;28;20523;-80
2023/11/08 09:05:21;;;;;;;10.77;10.03;;;11.40;99.90;;;;;;5079939;28;20462;-81
2023/11/08 09:07:52;;;;;;;10.60;10.20;;;11.30;99.90;;;;;;5076228;28;20541;-83
2023/11/08 09:10:21;;;;;;;10.57;10.30;;;11.30;99.90;;;;;;5076944;28;20450;-82
2023/11/08 09:12:53;;;;;;;10.73;10.53;;;11.10;99.90;;;;;;5076242;28;20627;-81
2023/11/08 09:15:22;;;;;;;10.30;10.10;;;11.40;99.90;;;;;;5080442;28;20462;-80
2023/11/08 09:17:50;;;;;;;10.47;10.17;;;11.50;99.90;;;;;;5080949;28;20913;-82
2023/11/08 09:20:21;;;;;;;10.60;10.40;;;11.90;99.90;;;;;;5080358;28;20458;-82
2023/11/08 09:22:51;;;;;;;10.30;10.00;;;12.30;99.90;;;;;;5076992;28;20492;-82
2023/11/08 09:25:19;;;;;;;10.90;10.50;;;12.80;99.90;;;;;;5075316;28;20443;-82
2023/11/08 09:27:49;;;;;;;10.47;10.27;;;13.30;99.90;;;;;;5081590;28;20446;-79
2023/11/08 09:30:17;;;;;;;10.90;10.70;;;13.70;99.90;;;;;;5075657;28;21226;-80
2023/11/08 09:32:46;;;;;;;11.00;10.60;;;14.40;99.90;;;;;;5081737;28;20855;-81
2023/11/08 09:35:14;;;;;;;11.20;10.90;;;14.80;99.90;;;;;;5082539;28;20450;-82
2023/11/08 09:37:43;;;;;;;10.27;9.97;;;15.20;99.90;;;;;;5083089;28;20452;-81
2023/11/08 09:40:15;;;;;;;10.60;10.20;;;15.20;99.90;;;;;;5074740;28;20459;-80
2023/11/08 09:42:43;;;;;;;10.17;9.87;;;15.40;99.90;;;;;;5079143;28;21091;-80
2023/11/08 09:45:17;;;;;;;10.03;9.73;;;15.80;99.90;;;;;;5076995;28;20461;-80
2023/11/08 09:47:47;;;;;;;9.63;9.33;;;15.90;99.90;;;;;;5080248;28;20485;-82
2023/11/08 09:50:16;;;;;;;9.53;9.33;;;16.20;99.90;;;;;;5077684;28;20466;-82
2023/11/08 09:52:44;;;;;;;9.27;8.97;;;16.50;99.90;;;;;;5076994;28;20534;-79
2023/11/08 09:55:14;;;;;;;9.80;9.47;;;16.60;99.90;;;;;;5077545;28;21080;-82
2023/11/08 09:57:48;;;;;;;9.00;8.70;;;17.50;99.90;;;;;;5081553;28;20454;-81
2023/11/08 10:00:20;;;;;;;8.80;8.50;;;17.60;99.90;;;;;;5079450;28;20457;-83
2023/11/08 10:02:53;;;;;;;8.90;8.70;;;16.20;99.90;;;;;;5078888;28;20573;-81
2023/11/08 10:05:22;;;;;;;9.43;9.13;;;15.20;99.90;;;;;;5078299;28;20549;-80
2023/11/08 10:07:51;;;;;;;9.67;9.30;;;15.60;99.90;;;;;;5075130;28;20454;-82
2023/11/08 10:10:21;;;;;;;9.50;9.30;;;15.70;99.90;;;;;;5078258;28;21230;-82
2023/11/08 10:13:05;;;;;;;9.30;9.00;;;16.60;99.90;;;;;;5074201;28;21637;-82
2023/11/08 10:15:34;;;;;;;9.63;9.33;;;16.90;99.90;;;;;;5079253;28;21150;-81
2023/11/08 10:18:03;;;;;;;8.80;8.60;;;18.10;99.90;;;;;;5076443;28;20446;-84
2023/11/08 10:20:51;;;;;;;8.97;8.77;;;18.00;99.90;;;;;;5081464;28;20444;-80
2023/11/08 10:23:32;;;;;;;9.80;9.33;;;16.10;99.90;;;;;;5082280;28;20485;-83
2023/11/08 10:26:17;;;;;;;9.53;8.90;;;15.00;99.90;;;;;;5077394;28;20535;-80
2023/11/08 10:29:01;;;;;;;9.37;9.07;;;14.40;99.90;;;;;;5079440;28;20462;-84
2023/11/08 10:31:33;;;;;;;8.90;8.70;;;14.60;99.90;;;;;;5080419;28;20517;-82
2023/11/08 10:34:04;;;;;;;9.30;9.10;;;14.20;99.90;;;;;;5076931;28;21039;-82
2023/11/08 10:36:33;;;;;;;9.20;9.00;;;13.90;99.90;;;;;;5075853;28;21157;-82
2023/11/08 10:39:04;;;;;;;9.17;8.97;;;13.80;99.90;;;;;;5075550;28;20538;-80
2023/11/08 10:41:36;;;;;;;8.87;8.57;;;14.40;99.90;;;;;;5082849;28;20506;-80
2023/11/08 10:44:09;;;;;;;8.80;8.50;;;14.90;99.90;;;;;;5074206;28;20491;-81
2023/11/08 10:46:39;;;;;;;8.57;8.37;;;14.40;99.90;;;;;;5079451;28;20458;-80
2023/11/08 10:49:12;;;;;;;8.90;8.60;;;13.80;99.90;;;;;;5080873;28;20493;-82
2023/11/08 10:51:42;;;;;;;9.00;8.70;;;13.20;99.90;;;;;;5076028;28;20490;-82
2023/11/08 10:54:11;;;;;;;8.77;8.57;;;13.10;99.90;;;;;;5077478;28;20461;-79
2023/11/08 10:56:45;;;;;;;8.90;8.70;;;13.80;99.90;;;;;;5078583;28;20457;-83
2023/11/08 10:59:18;;;;;;;10.27;9.77;;;14.80;99.90;;;;;;5078805;28;20903;-81
2023/11/08 11:01:48;;;;;;;8.00;7.90;;;15.50;99.90;;;;;;5077107;28;20510;-82
2023/11/08 11:04:19;;;;;;;7.70;7.60;;;15.00;99.90;;;;;;5080753;28;20503;-81
2023/11/08 11:06:49;;;;;;;8.07;7.70;;;14.30;99.90;;;;;;5078475;28;20557;-82
2023/11/08 11:09:18;;;;;;;7.97;7.77;;;13.90;99.90;;;;;;5086055;28;20458;-84
2023/11/08 11:11:54;;;;;;;7.87;7.60;;;13.60;99.90;;;;;;5080648;28;21319;-79
2023/11/08 11:14:28;;;;;;;8.37;8.17;;;13.80;99.90;;;;;;5077569;28;20449;-83
2023/11/08 11:17:03;;;;;;;8.33;8.00;;;14.00;99.90;;;;;;5076955;28;20557;-81
2023/11/08 11:19:33;;;;;;;7.80;7.70;;;14.10;99.90;;;;;;5081283;28;20450;-82
2023/11/08 11:22:08;;;;;;;8.00;7.80;;;13.70;99.90;;;;;;5077201;28;20490;-83
2023/11/08 11:24:39;;;;;;;8.13;7.80;;;13.60;99.90;;;;;;5076301;28;20524;-80
2023/11/08 11:27:32;;;;;;;7.60;7.40;;;13.50;99.90;;;;;;5078892;28;20455;-80
2023/11/08 11:30:26;;;;;;;7.50;7.40;;;13.20;99.90;;;;;;5080566;28;21330;-83
2023/11/08 11:32:58;;;;;;;8.10;7.90;;;13.10;99.90;;;;;;5080677;28;20478;-81
2023/11/08 11:35:55;;;;;;;7.33;7.17;;;13.10;99.90;;;;;;5075040;28;20529;-80
2023/11/08 11:38:27;;;;;;;7.53;7.33;;;13.20;99.90;;;;;;5073345;28;20489;-82
2023/11/08 11:41:22;;;;;;;6.60;6.50;;;13.10;99.90;;;;;;5075035;28;20454;-82
2023/11/08 11:43:59;;;;;;;6.90;6.80;;;13.00;99.90;;;;;;5074784;28;20474;-80
2023/11/08 11:46:35;;;;;;;6.63;6.53;;;13.00;99.90;;;;;;5078038;28;20469;-81
2023/11/08 11:49:11;;;;;;;6.43;6.33;;;13.00;99.90;;;;;;5075008;28;21205;-81
2023/11/08 11:51:41;;;;;;;6.53;6.33;;;12.90;99.90;;;;;;5077230;28;20475;-82
2023/11/08 11:54:15;;;;;;;7.10;6.73;;;12.90;99.90;;;;;;5075138;28;20546;-82
2023/11/08 11:56:43;;;;;;;6.60;6.50;;;12.90;99.90;;;;;;5073159;28;21019;-81
2023/11/08 11:59:13;;;;;;;6.70;6.60;;;12.80;99.90;;;;;;5076938;28;20461;-82
2023/11/08 12:01:41;;;;;;;6.43;6.33;;;12.80;99.90;;;;;;5075586;28;20562;-81
2023/11/08 12:04:12;;;;;;;7.03;6.83;;;12.90;99.90;;;;;;5075078;28;20478;-84
2023/11/08 12:06:41;;;;;;;6.50;6.40;;;12.90;99.90;;;;;;5071792;28;20450;-83
2023/11/08 12:09:12;;;;;;;7.00;6.90;;;12.80;99.90;;;;;;5079285;28;20617;-83
2023/11/08 12:11:48;;;;;;;7.33;7.13;;;12.80;99.90;;;;;;5073436;28;20526;-83
2023/11/08 12:14:21;;;;;;;6.80;6.70;;;13.00;99.90;;;;;;5078254;28;20455;-82
2023/11/08 12:16:50;;;;;;;6.57;6.40;;;13.20;99.90;;;;;;5077006;28;20455;-83
2023/11/08 12:19:18;;;;;;;7.00;6.90;;;13.30;99.90;;;;;;5071426;28;21039;-79
2023/11/08 12:21:47;;;;;;;6.60;6.50;;;13.40;99.90;;;;;;5074607;28;20474;-83
2023/11/08 12:24:16;;;;;;;6.60;6.50;;;13.50;99.90;;;;;;5078809;28;20500;-80
2023/11/08 12:26:44;;;;;;;6.90;6.80;;;13.50;99.90;;;;;;5075859;28;20469;-83
2023/11/08 12:29:12;;;;;;;6.70;6.60;;;13.20;99.90;;;;;;5079946;28;20457;-82
2023/11/08 12:31:45;;;;;;;7.10;7.00;;;13.30;99.90;;;;;;5074570;28;20474;-84
2023/11/08 12:34:15;;;;;;;7.40;7.20;;;13.50;99.90;;;;;;5075967;28;20549;-81
2023/11/08 12:36:46;;;;;;;6.87;6.73;;;13.70;99.90;;;;;;5076699;28;20466;-83
2023/11/08 12:39:20;;;;;;;6.78;6.68;;;13.70;99.90;;;;;;5076958;28;20463;-81
2023/11/08 12:41:55;;;;;;;7.30;7.20;;;13.70;99.90;;;;;;5076396;28;20461;-84
2023/11/08 12:44:44;;;;;;;7.87;7.53;;;13.80;99.90;;;;;;5080910;28;20493;-81
2023/11/08 12:47:16;;;;;;;7.20;6.90;;;13.80;99.90;;;;;;5078980;28;20442;-81
2023/11/08 12:49:45;;;;;;;7.30;7.20;;;13.80;99.90;;;;;;5072042;28;20528;-82
2023/11/08 12:52:16;;;;;;;7.20;7.10;;;13.70;99.90;;;;;;5073719;28;20475;-82
2023/11/08 12:54:45;;;;;;;6.93;6.63;;;13.50;99.90;;;;;;5079118;28;20530;-81
2023/11/08 12:57:25;;;;;;;7.30;7.20;;;13.40;99.90;;;;;;5075162;28;20515;-80
2023/11/08 12:59:56;;;;;;;7.23;7.13;;;13.30;99.90;;;;;;5071823;28;20519;-81
2023/11/08 13:02:26;;;;;;;7.50;7.30;;;13.40;99.90;;;;;;5079311;28;20565;-81
2023/11/08 13:04:55;;;;;;;8.00;7.70;;;13.30;99.90;;;;;;5075341;28;20544;-83
2023/11/08 13:07:25;;;;;;;7.30;7.10;;;13.20;99.90;;;;;;5071928;28;20538;-82